createdAt,value
2017-01-14T07:48:16.508Z,61.44
2017-01-14T07:49:25.782Z,62.11
2017-01-14T07:50:35.491Z,61.63
2017-01-14T07:51:45.646Z,61.54
2017-01-14T07:52:55.401Z,61.35
2017-01-14T07:54:05.575Z,61.72
2017-01-14T07:55:14.855Z,62.3
2017-01-14T07:56:25.005Z,62.11
2017-01-14T07:57:34.718Z,62.01
2017-01-14T07:58:45.359Z,61.92
2017-01-14T07:59:55.068Z,62.21
2017-01-14T08:01:05.225Z,61.92
2017-01-14T08:02:14.946Z,62.11
2017-01-14T08:03:24.224Z,61.92
2017-01-14T08:04:33.997Z,62.11
2017-01-14T08:05:43.710Z,62.21
2017-01-14T08:06:54.311Z,62.11
2017-01-14T08:08:04.472Z,62.3
2017-01-14T08:09:15.062Z,62.3
2017-01-14T08:10:24.823Z,62.49
2017-01-14T08:11:34.543Z,63.07
2017-01-14T08:12:44.701Z,63.07
2017-01-14T08:13:55.295Z,62.97
2017-01-14T08:15:05.888Z,62.87
2017-01-14T08:16:16.537Z,62.87
2017-01-14T08:17:26.690Z,63.73
2017-01-14T08:18:36.842Z,63.57
2017-01-14T08:19:47.432Z,64.02
2017-01-14T08:20:58.030Z,64.02
2017-01-14T08:22:08.679Z,64.22
2017-01-14T08:23:18.388Z,65.07
2017-01-14T08:24:28.110Z,64.98
2017-01-14T08:25:37.818Z,65.07
2017-01-14T08:26:47.535Z,65.55
2017-01-14T08:27:57.305Z,65.93
2017-01-14T08:29:07.902Z,66.31
2017-01-14T08:30:18.051Z,66.7
2017-01-14T08:31:27.328Z,66.63
2017-01-14T08:32:36.606Z,67.02
2017-01-14T08:33:46.371Z,67.02
2017-01-14T08:34:55.648Z,67.97
2017-01-14T08:36:04.925Z,67.69
2017-01-14T08:37:15.523Z,67.88
2017-01-14T08:38:25.263Z,67.78
2017-01-14T08:39:35.924Z,67.78
2017-01-14T08:40:45.646Z,67.97
2017-01-14T08:41:55.371Z,67.88
2017-01-14T08:43:05.960Z,67.69
2017-01-14T08:44:16.110Z,67.59
2017-01-14T08:45:26.315Z,67.88
2017-01-14T08:46:36.024Z,67.4
2017-01-14T08:47:45.329Z,67.21
2017-01-14T08:48:55.486Z,67.11
2017-01-14T08:50:04.764Z,67.11
2017-01-14T08:51:14.981Z,67.11
2017-01-14T08:52:25.138Z,66.54
2017-01-14T08:53:34.411Z,66.54
2017-01-14T08:54:44.132Z,65.87
2017-01-14T08:55:54.294Z,65.58
2017-01-14T08:57:04.059Z,65.01
2017-01-14T08:58:13.772Z,64.82
2017-01-14T08:59:23.933Z,64.34
2017-01-14T09:00:33.670Z,61.85
2017-01-14T09:01:43.387Z,60.04
2017-01-14T09:02:53.156Z,58.86
2017-01-14T09:04:03.306Z,58.29
2017-01-14T09:05:13.467Z,57.4
2017-01-14T09:06:23.184Z,56.63
2017-01-14T09:07:33.337Z,55.68
2017-01-14T09:08:43.570Z,54.79
2017-01-14T09:09:54.167Z,54.5
2017-01-14T09:11:04.760Z,54.13
2017-01-14T09:12:14.913Z,53.17
2017-01-14T09:13:25.058Z,52.57
2017-01-14T09:14:35.263Z,52.09
2017-01-14T09:15:45.417Z,51.23
2017-01-14T09:16:55.573Z,50.38
2017-01-14T09:18:06.162Z,49.68
2017-01-14T09:19:15.879Z,49.4
2017-01-14T09:20:26.528Z,49.02
2017-01-14T09:21:37.125Z,49.02
2017-01-14T09:22:47.282Z,48.83
2017-01-14T09:23:57.003Z,48.9
2017-01-14T09:25:07.152Z,48.71
2017-01-14T09:26:17.791Z,48.42
2017-01-14T09:27:27.070Z,48.23
2017-01-14T09:28:36.788Z,48.13
2017-01-14T09:29:46.500Z,48.04
2017-01-14T09:30:56.214Z,48.02
2017-01-14T09:32:05.543Z,47.82
2017-01-14T09:33:15.692Z,48.11
2017-01-14T09:34:25.841Z,47.16
2017-01-14T09:35:36.435Z,47.82
2017-01-14T09:36:46.152Z,48.11
2017-01-14T09:37:56.353Z,47.63
2017-01-14T09:39:05.630Z,48.39
2017-01-14T09:40:14.908Z,48.21
2017-01-14T09:41:25.500Z,47.34
2017-01-14T09:42:35.226Z,47.13
2017-01-14T09:43:45.434Z,46.94
2017-01-14T09:44:55.148Z,47.23
2017-01-14T09:46:05.301Z,47.23
2017-01-14T09:47:15.486Z,47.42
2017-01-14T09:48:25.200Z,47.89
2017-01-14T09:49:34.628Z,47.99
2017-01-14T09:50:44.338Z,47.61
2017-01-14T09:51:54.935Z,47.8
2017-01-14T09:53:04.216Z,48.08
2017-01-14T09:54:14.806Z,48.27
2017-01-14T09:55:25.043Z,48.08
2017-01-14T09:56:35.632Z,48.47
2017-01-14T09:57:45.781Z,47.89
2017-01-14T09:58:55.500Z,47.71
2017-01-14T10:00:05.215Z,47.89
2017-01-14T10:01:14.977Z,47.99
2017-01-14T10:02:25.126Z,47.23
2017-01-14T10:03:34.407Z,47.13
2017-01-14T10:04:44.560Z,47.8
2017-01-14T10:05:54.277Z,47.71
2017-01-14T10:07:04.495Z,48.08
2017-01-14T10:08:14.641Z,48.08
2017-01-14T10:09:24.353Z,47.8
2017-01-14T10:10:34.946Z,47.42
2017-01-14T10:11:44.659Z,47.32
2017-01-14T10:12:54.865Z,47.23
2017-01-14T10:14:05.050Z,48.08
2017-01-14T10:15:15.670Z,47.8
2017-01-14T10:16:25.824Z,48.47
2017-01-14T10:17:36.846Z,48.18
2017-01-14T10:18:46.611Z,47.61
2017-01-14T10:19:56.760Z,47.89
2017-01-14T10:21:07.349Z,47.87
2017-01-14T10:22:16.624Z,48.16
2017-01-14T10:23:26.336Z,48.35
2017-01-14T10:24:35.689Z,48.73
2017-01-14T10:25:46.290Z,49.08
2017-01-14T10:26:56.011Z,49.01
2017-01-14T10:28:06.592Z,49.2
2017-01-14T10:29:16.313Z,49.2
2017-01-14T10:30:26.515Z,49.87
2017-01-14T10:31:36.244Z,49.18
2017-01-14T10:32:46.393Z,49.08
2017-01-14T10:33:56.134Z,49.75
2017-01-14T10:35:06.283Z,49.65
2017-01-14T10:36:16.049Z,49.18
2017-01-14T10:37:25.758Z,49.85
2017-01-14T10:38:35.475Z,49.85
2017-01-14T10:39:44.750Z,49.56
2017-01-14T10:40:54.465Z,50.32
2017-01-14T10:42:03.802Z,52.25
2017-01-14T10:43:13.964Z,53.58
2017-01-14T10:44:24.561Z,53.96
2017-01-14T10:45:35.154Z,54.94
2017-01-14T10:46:50.180Z,54.56
2017-01-14T10:48:06.313Z,55.04
2017-01-14T10:49:21.087Z,55.63
2017-01-14T10:50:30.799Z,56.59
2017-01-14T10:51:40.512Z,57.26
2017-01-14T10:52:50.669Z,58.02
2017-01-14T10:54:01.311Z,58.62
2017-01-14T10:55:11.516Z,59.19
2017-01-14T10:56:21.233Z,58.81
2017-01-14T10:57:30.943Z,59.09
2017-01-14T10:58:41.967Z,59.31
2017-01-14T10:59:52.173Z,58.36
2017-01-14T11:01:01.886Z,58.46
2017-01-14T11:02:12.535Z,58.36
2017-01-14T11:03:22.249Z,58.29
2017-01-14T11:04:32.409Z,57.92
2017-01-14T11:05:42.206Z,58.2
2017-01-14T11:06:51.916Z,57.72
2017-01-14T11:08:02.506Z,57.56
2017-01-14T11:09:12.906Z,57.75
2017-01-14T11:10:22.692Z,56.99
2017-01-14T11:11:33.117Z,56.92
2017-01-14T11:12:44.338Z,56.92
2017-01-14T11:13:55.075Z,56.45
2017-01-14T11:15:05.680Z,56.67
2017-01-14T11:16:14.981Z,55.9
2017-01-14T11:17:25.627Z,55.42
2017-01-14T11:18:35.788Z,55.52
2017-01-14T11:19:46.409Z,55.04
2017-01-14T11:20:57.002Z,55.35
2017-01-14T11:22:07.600Z,55.07
2017-01-14T11:23:18.397Z,54.78
2017-01-14T11:24:28.570Z,55.16
2017-01-14T11:25:39.611Z,54.68
2017-01-14T11:26:50.244Z,54.04
2017-01-14T11:28:00.810Z,54.23
2017-01-14T11:29:11.043Z,53.69
2017-01-14T11:30:21.204Z,53.3
2017-01-14T11:31:32.233Z,53.59
2017-01-14T11:32:41.962Z,53.11
2017-01-14T11:33:51.688Z,53.62
2017-01-14T11:35:01.536Z,52.95
2017-01-14T11:36:13.022Z,52.95
2017-01-14T11:37:23.615Z,52.95
2017-01-14T11:38:33.336Z,52.47
2017-01-14T11:39:43.093Z,52.37
2017-01-14T11:40:53.446Z,52.09
2017-01-14T11:42:04.484Z,52.59
2017-01-14T11:43:15.117Z,52.4
2017-01-14T11:44:24.400Z,52.5
2017-01-14T11:45:34.559Z,51.73
2017-01-14T11:46:45.584Z,52.11
2017-01-14T11:47:57.189Z,51.34
2017-01-14T11:49:08.651Z,51.73
2017-01-14T11:50:18.364Z,51.73
2017-01-14T11:51:28.081Z,51.28
2017-01-14T11:52:38.726Z,50.89
2017-01-14T11:53:49.755Z,50.99
2017-01-14T11:54:59.920Z,50.7
2017-01-14T11:56:09.205Z,50.79
2017-01-14T11:57:18.955Z,51.1
2017-01-14T11:58:29.164Z,50.15
2017-01-14T11:59:40.197Z,50.34
2017-01-14T12:00:50.794Z,50.15
2017-01-14T12:02:00.959Z,49.96
2017-01-14T12:03:11.140Z,49.76
2017-01-14T12:04:20.913Z,50.05
2017-01-14T12:05:30.634Z,50.27
2017-01-14T12:06:41.220Z,49.6
2017-01-14T12:07:50.940Z,49.79
2017-01-14T12:09:00.665Z,49.6
2017-01-14T12:10:10.439Z,49.41
2017-01-14T12:11:20.596Z,49.02
2017-01-14T12:12:31.192Z,48.54
2017-01-14T12:13:40.923Z,48.74
2017-01-14T12:14:50.640Z,48.76
2017-01-14T12:16:00.409Z,48.57
2017-01-14T12:17:10.130Z,48.18
2017-01-14T12:18:19.875Z,48.18
2017-01-14T12:19:30.064Z,48.49
2017-01-14T12:20:40.662Z,48.11
2017-01-14T12:21:50.443Z,48.02
2017-01-14T12:23:00.604Z,47.72
2017-01-14T12:24:10.769Z,47.53
2017-01-14T12:25:20.922Z,47.72
2017-01-14T12:26:30.203Z,47.25
2017-01-14T12:27:40.853Z,47.63
2017-01-14T12:28:50.570Z,47.44
2017-01-14T12:30:00.291Z,47.85
2017-01-14T12:31:09.576Z,47.66
2017-01-14T12:32:19.737Z,47.27
2017-01-14T12:33:30.389Z,47.36
2017-01-14T12:34:40.116Z,47.36
2017-01-14T12:35:50.718Z,46.98
2017-01-14T12:37:00.438Z,47.17
2017-01-14T12:38:10.164Z,47
2017-01-14T12:39:20.372Z,46.98
2017-01-14T12:40:30.561Z,46.62
2017-01-14T12:41:41.603Z,46.72
2017-01-14T12:42:50.888Z,46.33
2017-01-14T12:44:01.921Z,46.62
2017-01-14T12:45:11.690Z,46.72
2017-01-14T12:46:21.851Z,47.2
2017-01-14T12:47:32.008Z,46.14
2017-01-14T12:48:42.175Z,46.43
2017-01-14T12:49:52.339Z,45.66
2017-01-14T12:51:01.672Z,46.04
2017-01-14T12:52:11.393Z,45.66
2017-01-14T12:53:21.118Z,45.76
2017-01-14T12:54:30.844Z,45.66
2017-01-14T12:55:40.565Z,45.85
2017-01-14T12:56:50.770Z,45.95
2017-01-14T12:58:00.487Z,45.56
2017-01-14T12:59:10.652Z,46.14
2017-01-14T13:00:20.809Z,46.23
2017-01-14T13:01:30.527Z,46.72
2017-01-14T13:02:40.749Z,47.2
2017-01-14T13:03:51.345Z,46.91
2017-01-14T13:05:01.518Z,46.81
2017-01-14T13:06:11.687Z,46.91
2017-01-14T13:07:21.856Z,46.53
2017-01-14T13:08:32.945Z,46.91
2017-01-14T13:09:43.114Z,46.53
2017-01-14T13:10:53.716Z,47.1
2017-01-14T13:12:03.893Z,46.62
2017-01-14T13:13:14.050Z,47.1
2017-01-14T13:14:23.843Z,47
2017-01-14T13:15:33.564Z,46.64
2017-01-14T13:16:43.726Z,45.08
2017-01-14T13:17:54.326Z,42.49
2017-01-14T13:19:04.488Z,40.45
2017-01-14T13:20:14.697Z,41.49
2017-01-14T13:21:25.294Z,42.44
2017-01-14T13:22:35.459Z,43.12
2017-01-14T13:23:45.616Z,43.5
2017-01-14T13:24:56.222Z,43.88
2017-01-14T13:26:06.439Z,44.46
2017-01-14T13:27:16.604Z,44.77
2017-01-14T13:28:27.202Z,44.68
2017-01-14T13:29:36.919Z,45.06
2017-01-14T13:30:46.644Z,45.25
2017-01-14T13:31:56.413Z,45.73
2017-01-14T13:33:06.570Z,45.45
2017-01-14T13:34:17.171Z,45.83
2017-01-14T13:35:27.768Z,45.92
2017-01-14T13:36:38.370Z,46.41
2017-01-14T13:37:48.594Z,46.31
2017-01-14T13:38:58.615Z,46.31
2017-01-14T13:40:09.757Z,46.79
2017-01-14T13:41:19.152Z,46.43
2017-01-14T13:42:29.192Z,46.69
2017-01-14T13:43:38.621Z,47
2017-01-14T13:44:49.874Z,47
2017-01-14T13:45:59.367Z,47.1
2017-01-14T13:47:09.417Z,46.62
2017-01-14T13:48:19.137Z,46.81
2017-01-14T13:49:29.126Z,46.81
2017-01-14T13:50:39.288Z,46.72
2017-01-14T13:51:50.353Z,47
2017-01-14T13:53:00.518Z,46.81
2017-01-14T13:54:10.239Z,46.72
2017-01-14T13:55:20.508Z,46.81
2017-01-14T13:56:31.114Z,46.91
2017-01-14T13:57:40.844Z,46.91
2017-01-14T13:58:51.080Z,46.62
2017-01-14T14:00:01.405Z,46.91
2017-01-14T14:01:11.938Z,46.79
2017-01-14T14:02:21.991Z,46.53
2017-01-14T14:03:31.533Z,46.91
2017-01-14T14:04:41.254Z,47.2
2017-01-14T14:05:51.423Z,47.3
2017-01-14T14:07:01.600Z,47.1
2017-01-14T14:08:11.882Z,47
2017-01-14T14:09:22.090Z,47.39
2017-01-14T14:10:31.816Z,47
2017-01-14T14:11:41.109Z,47
2017-01-14T14:12:50.403Z,46.91
2017-01-14T14:14:00.131Z,47.2
2017-01-14T14:15:10.776Z,47.39
2017-01-14T14:16:20.578Z,47.2
2017-01-14T14:17:31.615Z,47
2017-01-14T14:18:41.548Z,47
2017-01-14T14:19:52.021Z,47.39
2017-01-14T14:21:02.670Z,47.39
2017-01-14T14:22:13.859Z,47.49
2017-01-14T14:23:24.464Z,47.39
2017-01-14T14:24:35.286Z,47.2
2017-01-14T14:25:45.019Z,47.36
2017-01-14T14:26:54.352Z,47.39
2017-01-14T14:28:04.529Z,47.39
2017-01-14T14:29:13.815Z,47.56
2017-01-14T14:30:24.416Z,47.36
2017-01-14T14:31:34.789Z,47.46
2017-01-14T14:32:44.870Z,47.87
2017-01-14T14:33:55.031Z,47.66
2017-01-14T14:35:06.564Z,47.56
2017-01-14T14:36:15.881Z,47.36
2017-01-14T14:37:26.515Z,47.1
2017-01-14T14:38:36.292Z,47.08
2017-01-14T14:39:46.449Z,47.75
2017-01-14T14:40:56.618Z,47.3
2017-01-14T14:42:06.815Z,47.2
2017-01-14T14:43:16.544Z,47.66
2017-01-14T14:44:26.093Z,47.1
2017-01-14T14:45:36.251Z,47.08
2017-01-14T14:46:46.679Z,46.98
2017-01-14T14:47:57.289Z,47
2017-01-14T14:49:07.454Z,46.5
2017-01-14T14:50:17.879Z,46.91
2017-01-14T14:51:28.485Z,46.43
2017-01-14T14:52:38.574Z,46.53
2017-01-14T14:53:48.391Z,46.79
2017-01-14T14:54:57.696Z,46.72
2017-01-14T14:56:08.349Z,46.69
2017-01-14T14:57:18.071Z,46.62
2017-01-14T14:58:28.672Z,46.89
2017-01-14T14:59:38.405Z,46.79
2017-01-14T15:00:48.566Z,46.79
2017-01-14T15:01:59.223Z,46.59
2017-01-14T15:03:10.068Z,46.79
2017-01-14T15:04:20.361Z,47.27
2017-01-14T15:05:30.430Z,46.69
2017-01-14T15:06:40.855Z,46.79
2017-01-14T15:07:51.937Z,46.89
2017-01-14T15:09:01.870Z,46.79
2017-01-14T15:10:11.599Z,46.5
2017-01-14T15:11:21.757Z,46.89
2017-01-14T15:12:32.349Z,46.41
2017-01-14T15:13:42.243Z,46.59
2017-01-14T15:14:52.064Z,46.59
2017-01-14T15:16:01.785Z,47.08
2017-01-14T15:17:12.386Z,46.69
2017-01-14T15:18:22.548Z,46.72
2017-01-14T15:19:32.753Z,46.59
2017-01-14T15:20:42.914Z,46.89
2017-01-14T15:21:52.195Z,47.17
2017-01-14T15:23:01.800Z,47.17
2017-01-14T15:24:11.630Z,46.89
2017-01-14T15:25:21.503Z,47.17
2017-01-14T15:26:31.756Z,47.08
2017-01-14T15:27:41.477Z,46.98
2017-01-14T15:28:52.070Z,47.2
2017-01-14T15:30:02.236Z,47.27
2017-01-14T15:31:11.577Z,47.08
2017-01-14T15:32:21.745Z,46.89
2017-01-14T15:33:31.471Z,47.08
2017-01-14T15:34:41.624Z,47.08
2017-01-14T15:35:52.341Z,47.08
2017-01-14T15:37:02.650Z,46.79
2017-01-14T15:38:13.251Z,47.36
2017-01-14T15:39:23.420Z,47.46
2017-01-14T15:40:33.826Z,47.46
2017-01-14T15:41:43.983Z,47.36
2017-01-14T15:42:55.184Z,47.27
2017-01-14T15:44:05.557Z,47.39
2017-01-14T15:45:15.495Z,47.08
2017-01-14T15:46:25.863Z,47.08
2017-01-14T15:47:35.588Z,47.85
2017-01-14T15:48:44.926Z,47.27
2017-01-14T15:49:55.079Z,46.98
2017-01-14T15:51:05.344Z,47.56
2017-01-14T15:52:17.754Z,47.17
2017-01-14T15:53:28.355Z,47.17
2017-01-14T15:54:38.393Z,47.27
2017-01-14T15:55:48.121Z,47.27
2017-01-14T15:56:57.402Z,47.56
2017-01-14T15:58:07.568Z,47.56
2017-01-14T15:59:18.165Z,47.27
2017-01-14T16:00:28.150Z,47.56
2017-01-14T16:01:38.515Z,47.56
2017-01-14T16:02:48.684Z,47.56
2017-01-14T16:03:59.062Z,47.36
2017-01-14T16:05:09.890Z,47.08
2017-01-14T16:06:19.656Z,47.85
2017-01-14T16:07:29.376Z,47.85
2017-01-14T16:08:39.306Z,47.75
2017-01-14T16:09:49.251Z,47.94
2017-01-14T16:10:59.716Z,47.56
2017-01-14T16:12:09.490Z,47.36
2017-01-14T16:13:20.093Z,47.46
2017-01-14T16:14:30.252Z,47.56
2017-01-14T16:15:39.973Z,47.56
2017-01-14T16:16:49.262Z,47.75
2017-01-14T16:17:59.035Z,47.56
2017-01-14T16:19:08.792Z,47.75
2017-01-14T16:20:18.957Z,47.75
2017-01-14T16:21:29.106Z,47.85
2017-01-14T16:22:39.091Z,47.94
2017-01-14T16:23:49.733Z,47.94
2017-01-14T16:24:59.906Z,47.66
2017-01-14T16:26:10.511Z,47.85
2017-01-14T16:27:21.108Z,47.66
2017-01-14T16:28:31.505Z,47.85
2017-01-14T16:29:41.947Z,47.85
2017-01-14T16:30:52.209Z,47.75
2017-01-14T16:32:02.801Z,47.75
2017-01-14T16:33:13.143Z,47.75
2017-01-14T16:34:23.300Z,47.85
2017-01-14T16:35:34.085Z,47.56
2017-01-14T16:36:43.366Z,47.66
2017-01-14T16:37:53.295Z,47.75
2017-01-14T16:39:03.902Z,47.94
2017-01-14T16:40:14.713Z,47.66
2017-01-14T16:41:25.359Z,47.75
2017-01-14T16:42:35.088Z,48.23
2017-01-14T16:43:45.252Z,48.23
2017-01-14T16:44:54.970Z,48.33
2017-01-14T16:46:05.573Z,48.61
2017-01-14T16:47:16.224Z,48.23
2017-01-14T16:48:25.510Z,48.33
2017-01-14T16:49:36.119Z,48.43
2017-01-14T16:50:45.956Z,48.52
2017-01-14T16:51:56.135Z,48.33
2017-01-14T16:53:06.342Z,48.43
2017-01-14T16:54:16.160Z,48.43
2017-01-14T16:55:26.321Z,48.52
2017-01-14T16:56:36.798Z,48.33
2017-01-14T16:57:46.519Z,48.23
2017-01-14T16:58:56.896Z,48.04
2017-01-14T17:00:07.653Z,48.33
2017-01-14T17:01:17.494Z,48.43
2017-01-14T17:02:27.660Z,48.43
2017-01-14T17:03:37.913Z,48.23
2017-01-14T17:04:48.122Z,48.33
2017-01-14T17:05:57.847Z,48.43
2017-01-14T17:07:07.569Z,48.33
2017-01-14T17:08:17.493Z,48.13
2017-01-14T17:09:28.292Z,48.23
2017-01-14T17:10:38.692Z,48.61
2017-01-14T17:11:48.417Z,48.61
2017-01-14T17:12:57.902Z,48.71
2017-01-14T17:14:07.623Z,48.9
2017-01-14T17:15:17.780Z,48.81
2017-01-14T17:16:28.001Z,49.38
2017-01-14T17:17:38.379Z,49.19
2017-01-14T17:18:48.100Z,49
2017-01-14T17:19:58.261Z,49.1
2017-01-14T17:21:07.982Z,49.1
2017-01-14T17:22:17.316Z,49.38
2017-01-14T17:23:27.033Z,49.48
2017-01-14T17:24:37.830Z,49.1
2017-01-14T17:25:47.115Z,49.48
2017-01-14T17:26:56.840Z,49.67
2017-01-14T17:28:06.609Z,49.87
2017-01-14T17:29:15.894Z,49.77
2017-01-14T17:30:26.055Z,49.87
2017-01-14T17:31:36.220Z,49.96
2017-01-14T17:32:47.253Z,49.57
2017-01-14T17:33:57.895Z,49.67
2017-01-14T17:35:07.620Z,49.67
2017-01-14T17:36:17.345Z,49.67
2017-01-14T17:37:28.006Z,49.87
2017-01-14T17:38:38.143Z,50.44
2017-01-14T17:39:47.960Z,50.05
2017-01-14T17:40:58.568Z,50.15
2017-01-14T17:42:09.024Z,50.15
2017-01-14T17:43:18.349Z,50.25
2017-01-14T17:44:28.509Z,50.05
2017-01-14T17:45:38.286Z,49.96
2017-01-14T17:46:48.191Z,49.87
2017-01-14T17:47:58.440Z,49.87
2017-01-14T17:49:08.159Z,50.15
2017-01-14T17:50:17.882Z,49.67
2017-01-14T17:51:28.768Z,49.87
2017-01-14T17:52:38.493Z,49.96
2017-01-14T17:53:49.130Z,50.34
2017-01-14T17:54:59.319Z,49.87
2017-01-14T17:56:09.500Z,50.05
2017-01-14T17:57:20.153Z,50.05
2017-01-14T17:58:30.575Z,50.63
2017-01-14T17:59:40.731Z,50.34
2017-01-14T18:00:50.677Z,50.44
2017-01-14T18:02:00.422Z,50.82
2017-01-14T18:03:10.195Z,50.63
2017-01-14T18:04:19.924Z,49.87
2017-01-14T18:05:29.241Z,49.87
2017-01-14T18:06:39.402Z,49.87
2017-01-14T18:07:48.680Z,50.25
2017-01-14T18:08:58.893Z,49.57
2017-01-14T18:10:08.621Z,49.77
2017-01-14T18:11:18.779Z,49.87
2017-01-14T18:12:29.380Z,49.19
2017-01-14T18:13:39.097Z,49.19
2017-01-14T18:14:48.867Z,49.38
2017-01-14T18:15:58.588Z,49.57
2017-01-14T18:17:09.181Z,49.29
2017-01-14T18:18:19.338Z,49.1
2017-01-14T18:19:29.504Z,48.9
2017-01-14T18:20:39.705Z,49.19
2017-01-14T18:21:48.981Z,48.71
2017-01-14T18:22:58.266Z,48.71
2017-01-14T18:24:07.985Z,49.1
2017-01-14T18:25:18.153Z,48.9
2017-01-14T18:26:28.798Z,49
2017-01-14T18:27:38.519Z,48.59
2017-01-14T18:28:47.805Z,48.61
2017-01-14T18:29:57.522Z,48.97
2017-01-14T18:31:06.807Z,48.88
2017-01-14T18:32:17.012Z,48.79
2017-01-14T18:33:27.177Z,49.07
2017-01-14T18:34:36.460Z,48.88
2017-01-14T18:35:46.183Z,48.97
2017-01-14T18:36:56.372Z,49.07
2017-01-14T18:38:05.737Z,48.79
2017-01-14T18:39:16.778Z,49.07
2017-01-14T18:40:27.381Z,49.07
2017-01-14T18:41:37.539Z,48.79
2017-01-14T18:42:47.285Z,49.17
2017-01-14T18:43:57.054Z,48.97
2017-01-14T18:45:06.335Z,48.97
2017-01-14T18:46:16.932Z,48.88
2017-01-14T18:47:27.529Z,49.26
2017-01-14T18:48:37.690Z,48.85
2017-01-14T18:49:47.471Z,48.79
2017-01-14T18:50:57.627Z,48.76
2017-01-14T18:52:06.913Z,48.57
2017-01-14T18:53:16.633Z,48.85
2017-01-14T18:54:26.367Z,48.66
2017-01-14T18:55:36.136Z,48.76
2017-01-14T18:56:45.856Z,49.24
2017-01-14T18:57:55.578Z,48.95
2017-01-14T18:59:06.611Z,49.05
2017-01-14T19:00:15.887Z,49.24
2017-01-14T19:01:26.092Z,49.05
2017-01-14T19:02:36.682Z,49.15
2017-01-14T19:03:46.394Z,49.52
2017-01-14T19:04:56.995Z,49.43
2017-01-14T19:06:07.157Z,49.52
2017-01-14T19:07:16.925Z,49.43
2017-01-14T19:08:26.650Z,49.43
2017-01-14T19:09:36.371Z,49.33
2017-01-14T19:10:46.528Z,49.12
2017-01-14T19:11:57.133Z,49.21
2017-01-14T19:13:07.781Z,49.62
2017-01-14T19:14:17.939Z,49.5
2017-01-14T19:15:28.531Z,49.41
2017-01-14T19:16:38.252Z,49.31
2017-01-14T19:17:47.532Z,49.6
2017-01-14T19:18:57.737Z,49.82
2017-01-14T19:20:08.334Z,49.88
2017-01-14T19:21:18.059Z,49.69
2017-01-14T19:22:28.659Z,49.88
2017-01-14T19:23:38.381Z,49.5
2017-01-14T19:24:49.025Z,49.69
2017-01-14T19:25:59.626Z,49.69
2017-01-14T19:27:09.775Z,49.88
2017-01-14T19:28:19.488Z,49.6
2017-01-14T19:29:29.210Z,49.69
2017-01-14T19:30:39.854Z,49.5
2017-01-14T19:31:50.456Z,49.5
2017-01-14T19:33:00.177Z,49.5
2017-01-14T19:34:10.777Z,49.6
2017-01-14T19:35:21.371Z,49.5
2017-01-14T19:36:31.580Z,50.37
2017-01-14T19:37:42.621Z,50.17
2017-01-14T19:38:53.218Z,50.17
2017-01-14T19:40:02.935Z,49.98
2017-01-14T19:41:12.657Z,50.08
2017-01-14T19:42:22.430Z,50.08
2017-01-14T19:43:32.591Z,50.05
2017-01-14T19:44:42.311Z,50.05
2017-01-14T19:45:52.465Z,49.96
2017-01-14T19:47:03.062Z,49.67
2017-01-14T19:48:13.270Z,49.67
2017-01-14T19:49:23.436Z,49.76
2017-01-14T19:50:33.161Z,49.76
2017-01-14T19:51:42.882Z,50.05
2017-01-14T19:52:52.163Z,50.05
2017-01-14T19:54:01.496Z,49.86
2017-01-14T19:55:11.674Z,50.05
2017-01-14T19:56:21.391Z,49.86
2017-01-14T19:57:31.543Z,49.57
2017-01-14T19:58:42.145Z,50.05
2017-01-14T19:59:52.551Z,50.15
2017-01-14T20:01:02.272Z,49.76
2017-01-14T20:02:12.432Z,49.96
2017-01-14T20:03:23.033Z,49.76
2017-01-14T20:04:33.646Z,49.96
2017-01-14T20:05:44.288Z,50.43
2017-01-14T20:06:54.469Z,49.96
2017-01-14T20:08:04.627Z,50.12
2017-01-14T20:09:14.790Z,50.15
2017-01-14T20:10:24.072Z,50.24
2017-01-14T20:11:33.842Z,50.53
2017-01-14T20:12:44.003Z,50.24
2017-01-14T20:13:54.169Z,50.73
2017-01-14T20:15:03.894Z,50.43
2017-01-14T20:16:14.051Z,50.43
2017-01-14T20:17:24.260Z,50.43
2017-01-14T20:18:34.417Z,50.51
2017-01-14T20:19:44.135Z,50.51
2017-01-14T20:20:54.292Z,50.32
2017-01-14T20:22:04.016Z,50.32
2017-01-14T20:23:14.239Z,50.41
2017-01-14T20:24:24.836Z,50.6
2017-01-14T20:25:35.430Z,50.22
2017-01-14T20:26:45.159Z,50.32
2017-01-14T20:27:55.348Z,50.22
2017-01-14T20:29:04.681Z,50.7
2017-01-14T20:30:15.275Z,50.7
2017-01-14T20:31:24.572Z,50.7
2017-01-14T20:32:34.729Z,50.6
2017-01-14T20:33:44.882Z,50.89
2017-01-14T20:34:54.324Z,51.08
2017-01-14T20:36:04.481Z,50.99
2017-01-14T20:37:14.198Z,51.18
2017-01-14T20:38:23.940Z,51.18
2017-01-14T20:39:34.541Z,50.79
2017-01-14T20:40:44.311Z,50.89
2017-01-14T20:41:54.032Z,50.79
2017-01-14T20:43:03.753Z,50.79
2017-01-14T20:44:13.034Z,50.89
2017-01-14T20:45:22.752Z,50.7
2017-01-14T20:46:32.077Z,50.79
2017-01-14T20:47:42.682Z,51.18
2017-01-14T20:48:53.275Z,50.99
2017-01-14T20:50:03.001Z,50.89
2017-01-14T20:51:13.162Z,50.58
2017-01-14T20:52:22.647Z,50.67
2017-01-14T20:53:32.361Z,50.67
2017-01-14T20:54:41.642Z,50.67
2017-01-14T20:55:51.363Z,50.77
2017-01-14T20:57:01.087Z,50.67
2017-01-14T20:58:10.849Z,50.7
2017-01-14T20:59:21.003Z,50.87
2017-01-14T21:00:30.720Z,50.67
2017-01-14T21:01:40.873Z,50.77
2017-01-14T21:02:50.162Z,50.77
2017-01-14T21:04:00.812Z,50.96
2017-01-14T21:05:10.533Z,50.87
2017-01-14T21:06:19.834Z,50.96
2017-01-14T21:07:30.428Z,50.87
2017-01-14T21:08:41.021Z,50.96
2017-01-14T21:09:50.786Z,50.96
2017-01-14T21:11:01.387Z,51.06
2017-01-14T21:12:11.545Z,50.96
2017-01-14T21:13:20.834Z,51.06
2017-01-14T21:14:30.988Z,50.67
2017-01-14T21:15:42.073Z,50.48
2017-01-14T21:16:52.231Z,50.67
2017-01-14T21:18:02.412Z,51.06
2017-01-14T21:19:13.009Z,50.87
2017-01-14T21:20:22.295Z,50.67
2017-01-14T21:21:32.068Z,50.48
2017-01-14T21:22:42.225Z,50.67
2017-01-14T21:23:52.811Z,50.87
2017-01-14T21:25:03.408Z,50.96
2017-01-14T21:26:14.005Z,50.96
2017-01-14T21:27:24.307Z,50.87
2017-01-14T21:28:34.024Z,50.87
2017-01-14T21:29:45.054Z,50.87
2017-01-14T21:30:54.775Z,50.96
2017-01-14T21:32:05.368Z,50.77
2017-01-14T21:33:15.137Z,50.77
2017-01-14T21:34:25.731Z,50.77
2017-01-14T21:35:35.448Z,50.87
2017-01-14T21:36:45.609Z,50.96
2017-01-14T21:37:55.327Z,50.96
2017-01-14T21:39:05.532Z,50.77
2017-01-14T21:40:16.130Z,50.77
2017-01-14T21:41:25.415Z,51.06
2017-01-14T21:42:35.576Z,50.96
2017-01-14T21:43:45.297Z,50.87
2017-01-14T21:44:55.075Z,50.77
2017-01-14T21:46:05.240Z,50.58
2017-01-14T21:47:16.274Z,50.96
2017-01-14T21:48:26.439Z,50.67
2017-01-14T21:49:36.604Z,50.67
2017-01-14T21:50:46.378Z,50.67
2017-01-14T21:51:56.539Z,50.67
2017-01-14T21:53:05.820Z,50.77
2017-01-14T21:54:15.989Z,50.77
2017-01-14T21:55:26.587Z,50.77
2017-01-14T21:56:35.912Z,50.87
2017-01-14T21:57:45.633Z,50.74
2017-01-14T21:58:55.786Z,50.87
2017-01-14T22:00:05.940Z,50.67
2017-01-14T22:01:16.105Z,50.93
2017-01-14T22:02:25.875Z,50.74
2017-01-14T22:03:36.475Z,50.87
2017-01-14T22:04:47.069Z,50.74
2017-01-14T22:05:57.667Z,50.84
2017-01-14T22:07:07.847Z,50.84
2017-01-14T22:08:18.056Z,50.84
2017-01-14T22:09:27.334Z,50.74
2017-01-14T22:10:37.052Z,50.74
2017-01-14T22:11:47.208Z,50.93
2017-01-14T22:12:57.386Z,50.93
2017-01-14T22:14:08.032Z,50.93
2017-01-14T22:15:18.657Z,50.93
2017-01-14T22:16:28.818Z,50.65
2017-01-14T22:17:38.975Z,50.74
2017-01-14T22:18:48.702Z,50.93
2017-01-14T22:19:58.530Z,50.84
2017-01-14T22:21:07.807Z,50.74
2017-01-14T22:22:17.976Z,50.84
2017-01-14T22:23:28.570Z,50.93
2017-01-14T22:24:38.287Z,50.93
2017-01-14T22:25:48.500Z,50.84
2017-01-14T22:26:59.098Z,50.93
2017-01-14T22:28:09.259Z,50.74
2017-01-14T22:29:19.412Z,51.22
2017-01-14T22:30:28.693Z,51.03
2017-01-14T22:31:39.384Z,51.13
2017-01-14T22:32:49.540Z,51.22
2017-01-14T22:33:59.265Z,51.22
2017-01-14T22:35:08.986Z,51.13
2017-01-14T22:36:19.575Z,50.93
2017-01-14T22:37:30.229Z,51.32
2017-01-14T22:38:39.946Z,51.03
2017-01-14T22:39:50.099Z,51.32
2017-01-14T22:40:59.821Z,51.32
2017-01-14T22:42:09.542Z,51.13
2017-01-14T22:43:18.871Z,50.93
2017-01-14T22:44:29.028Z,51.13
2017-01-14T22:45:38.749Z,51.32
2017-01-14T22:46:48.495Z,51.7
2017-01-14T22:47:58.652Z,51.7
2017-01-14T22:49:09.297Z,51.42
2017-01-14T22:50:19.475Z,51.7
2017-01-14T22:51:29.636Z,51.89
2017-01-14T22:52:40.237Z,51.89
2017-01-14T22:53:49.514Z,51.89
2017-01-14T22:54:59.284Z,51.61